sensor_id;sensor_type;location;lat;lon;timestamp;pressure;altitude;pressure_sealevel;temperature;humidity
10079;BME280;5078;42.544;22.966;2023-08-20T00:00:30;94085.66;;;20.05;100.00
10079;BME280;5078;42.544;22.966;2023-08-20T00:02:59;94086.69;;;20.04;100.00
10079;BME280;5078;42.544;22.966;2023-08-20T00:05:30;94086.25;;;20.07;100.00
10079;BME280;5078;42.544;22.966;2023-08-20T00:07:56;94085.41;;;20.07;100.00
10079;BME280;5078;42.544;22.966;2023-08-20T00:10:24;94086.47;;;20.06;100.00
10079;BME280;5078;42.544;22.966;2023-08-20T00:12:51;94075.28;;;19.90;100.00
10079;BME280;5078;42.544;22.966;2023-08-20T00:15:18;94086.50;;;19.87;100.00
10079;BME280;5078;42.544;22.966;2023-08-20T00:17:45;94086.53;;;19.69;100.00
10079;BME280;5078;42.544;22.966;2023-08-20T00:20:13;94086.94;;;19.66;100.00
10079;BME280;5078;42.544;22.966;2023-08-20T00:22:42;94095.88;;;19.85;100.00
10079;BME280;5078;42.544;22.966;2023-08-20T00:25:11;94084.22;;;20.02;100.00
10079;BME280;5078;42.544;22.966;2023-08-20T00:27:40;94087.31;;;20.18;100.00
10079;BME280;5078;42.544;22.966;2023-08-20T00:30:08;94089.09;;;20.24;100.00
10079;BME280;5078;42.544;22.966;2023-08-20T00:32:35;94093.06;;;20.21;100.00
10079;BME280;5078;42.544;22.966;2023-08-20T00:35:02;94106.09;;;20.36;100.00
10079;BME280;5078;42.544;22.966;2023-08-20T00:37:29;94091.69;;;20.31;100.00
10079;BME280;5078;42.544;22.966;2023-08-20T00:39:56;94094.38;;;20.31;100.00
10079;BME280;5078;42.544;22.966;2023-08-20T00:42:23;94091.00;;;20.35;99.52
10079;BME280;5078;42.544;22.966;2023-08-20T00:44:52;94091.84;;;20.47;97.02
10079;BME280;5078;42.544;22.966;2023-08-20T00:47:19;94073.50;;;19.84;100.00
10079;BME280;5078;42.544;22.966;2023-08-20T00:49:47;94074.69;;;19.88;100.00
10079;BME280;5078;42.544;22.966;2023-08-20T00:52:15;94090.28;;;20.28;100.00
10079;BME280;5078;42.544;22.966;2023-08-20T00:54:44;94089.34;;;20.34;98.89
10079;BME280;5078;42.544;22.966;2023-08-20T00:57:13;94086.31;;;20.31;99.13
10079;BME280;5078;42.544;22.966;2023-08-20T00:59:40;94089.63;;;20.14;100.00
10079;BME280;5078;42.544;22.966;2023-08-20T01:02:09;94082.97;;;19.87;100.00
10079;BME280;5078;42.544;22.966;2023-08-20T01:04:36;94084.44;;;19.71;100.00
10079;BME280;5078;42.544;22.966;2023-08-20T01:09:57;94081.31;;;19.37;100.00
10079;BME280;5078;42.544;22.966;2023-08-20T01:12:29;94090.34;;;19.43;100.00
10079;BME280;5078;42.544;22.966;2023-08-20T01:14:55;94075.69;;;19.75;100.00
10079;BME280;5078;42.544;22.966;2023-08-20T01:17:24;94084.44;;;19.71;100.00
10079;BME280;5078;42.544;22.966;2023-08-20T01:19:50;94080.47;;;19.55;100.00
10079;BME280;5078;42.544;22.966;2023-08-20T01:25:27;94079.88;;;20.01;100.00
10079;BME280;5078;42.544;22.966;2023-08-20T01:28:02;94078.31;;;19.94;100.00
10079;BME280;5078;42.544;22.966;2023-08-20T01:30:35;94082.16;;;19.86;100.00
10079;BME280;5078;42.544;22.966;2023-08-20T01:33:03;94086.25;;;20.07;100.00
10079;BME280;5078;42.544;22.966;2023-08-20T01:35:30;94077.38;;;19.88;100.00
10079;BME280;5078;42.544;22.966;2023-08-20T01:37:56;94079.50;;;19.31;100.00
10079;BME280;5078;42.544;22.966;2023-08-20T01:40:23;94085.47;;;19.51;100.00
10079;BME280;5078;42.544;22.966;2023-08-20T01:42:50;94080.34;;;19.68;100.00
10079;BME280;5078;42.544;22.966;2023-08-20T01:45:17;94081.06;;;19.38;100.00
10079;BME280;5078;42.544;22.966;2023-08-20T01:47:46;94085.47;;;19.51;100.00
10079;BME280;5078;42.544;22.966;2023-08-20T01:50:12;94080.69;;;19.53;100.00
10079;BME280;5078;42.544;22.966;2023-08-20T01:52:39;94081.22;;;19.62;100.00
10079;BME280;5078;42.544;22.966;2023-08-20T01:55:06;94071.59;;;19.36;100.00
10079;BME280;5078;42.544;22.966;2023-08-20T01:57:33;94059.47;;;19.27;100.00
10079;BME280;5078;42.544;22.966;2023-08-20T02:00:00;94066.03;;;18.75;100.00
10079;BME280;5078;42.544;22.966;2023-08-20T02:02:27;94068.53;;;18.45;100.00
10079;BME280;5078;42.544;22.966;2023-08-20T02:04:55;94065.03;;;18.45;100.00
10079;BME280;5078;42.544;22.966;2023-08-20T02:07:21;94059.09;;;18.61;100.00
10079;BME280;5078;42.544;22.966;2023-08-20T02:09:48;94045.34;;;18.76;100.00
10079;BME280;5078;42.544;22.966;2023-08-20T02:12:15;94049.31;;;18.92;100.00
10079;BME280;5078;42.544;22.966;2023-08-20T02:14:41;94050.38;;;18.66;100.00
10079;BME280;5078;42.544;22.966;2023-08-20T02:17:08;94047.88;;;18.46;100.00
10079;BME280;5078;42.544;22.966;2023-08-20T02:19:35;94048.28;;;18.68;100.00
10079;BME280;5078;42.544;22.966;2023-08-20T02:22:03;94048.66;;;18.71;100.00
10079;BME280;5078;42.544;22.966;2023-08-20T02:24:30;94039.41;;;18.67;100.00
10079;BME280;5078;42.544;22.966;2023-08-20T02:26:57;94037.84;;;18.60;100.00
10079;BME280;5078;42.544;22.966;2023-08-20T02:29:23;94049.47;;;18.72;100.00
10079;BME280;5078;42.544;22.966;2023-08-20T02:31:50;94042.59;;;18.58;100.00
10079;BME280;5078;42.544;22.966;2023-08-20T02:34:17;94044.94;;;18.72;100.00
10079;BME280;5078;42.544;22.966;2023-08-20T02:36:43;94040.78;;;18.77;100.00
10079;BME280;5078;42.544;22.966;2023-08-20T02:39:13;94016.13;;;18.61;100.00
10079;BME280;5078;42.544;22.966;2023-08-20T02:41:39;94042.38;;;18.59;100.00
10079;BME280;5078;42.544;22.966;2023-08-20T02:44:06;94039.91;;;18.58;100.00
10079;BME280;5078;42.544;22.966;2023-08-20T02:46:33;94031.78;;;18.64;100.00
10079;BME280;5078;42.544;22.966;2023-08-20T02:49:00;94048.13;;;18.88;100.00
10079;BME280;5078;42.544;22.966;2023-08-20T02:51:26;94045.59;;;18.93;100.00
10079;BME280;5078;42.544;22.966;2023-08-20T02:53:53;94038.13;;;18.95;100.00
10079;BME280;5078;42.544;22.966;2023-08-20T02:56:21;94035.44;;;18.95;100.00
10079;BME280;5078;42.544;22.966;2023-08-20T02:58:48;94038.91;;;19.02;100.00
10079;BME280;5078;42.544;22.966;2023-08-20T03:01:18;94048.44;;;18.98;100.00
10079;BME280;5078;42.544;22.966;2023-08-20T03:03:45;94053.28;;;19.08;100.00
10079;BME280;5078;42.544;22.966;2023-08-20T03:06:12;94052.31;;;19.21;100.00
10079;BME280;5078;42.544;22.966;2023-08-20T03:08:39;94057.25;;;19.24;100.00
10079;BME280;5078;42.544;22.966;2023-08-20T03:11:06;94060.91;;;19.11;100.00
10079;BME280;5078;42.544;22.966;2023-08-20T03:13:34;94056.06;;;19.20;100.00
10079;BME280;5078;42.544;22.966;2023-08-20T03:16:01;94056.06;;;19.20;100.00
10079;BME280;5078;42.544;22.966;2023-08-20T03:18:28;94067.63;;;19.20;100.00
10079;BME280;5078;42.544;22.966;2023-08-20T03:20:55;94057.75;;;18.95;100.00
10079;BME280;5078;42.544;22.966;2023-08-20T03:23:22;94071.81;;;18.72;100.00
10079;BME280;5078;42.544;22.966;2023-08-20T03:25:49;94067.38;;;18.60;100.00
10079;BME280;5078;42.544;22.966;2023-08-20T03:28:17;94068.84;;;18.56;100.00
10079;BME280;5078;42.544;22.966;2023-08-20T03:30:45;94074.88;;;18.51;100.00
10079;BME280;5078;42.544;22.966;2023-08-20T03:33:12;94073.41;;;18.55;100.00
10079;BME280;5078;42.544;22.966;2023-08-20T03:35:39;94068.72;;;18.44;100.00
10079;BME280;5078;42.544;22.966;2023-08-20T03:38:06;94066.28;;;18.42;100.00
10079;BME280;5078;42.544;22.966;2023-08-20T03:40:33;94060.69;;;18.44;100.00
10079;BME280;5078;42.544;22.966;2023-08-20T03:43:00;94059.50;;;18.40;100.00
10079;BME280;5078;42.544;22.966;2023-08-20T03:45:27;94060.63;;;18.25;100.00
10079;BME280;5078;42.544;22.966;2023-08-20T03:47:56;94076.66;;;18.32;100.00
10079;BME280;5078;42.544;22.966;2023-08-20T03:50:23;94062.69;;;18.23;100.00
10079;BME280;5078;42.544;22.966;2023-08-20T03:52:50;94065.34;;;18.30;100.00
10079;BME280;5078;42.544;22.966;2023-08-20T03:55:16;94070.91;;;17.97;100.00
10079;BME280;5078;42.544;22.966;2023-08-20T03:57:43;94060.97;;;18.36;100.00
10079;BME280;5078;42.544;22.966;2023-08-20T04:00:11;94066.22;;;18.49;100.00
10079;BME280;5078;42.544;22.966;2023-08-20T04:02:38;94063.59;;;18.42;100.00
10079;BME280;5078;42.544;22.966;2023-08-20T04:05:06;94064.19;;;18.44;100.00
10079;BME280;5078;42.544;22.966;2023-08-20T04:07:33;94066.53;;;18.59;100.00
10079;BME280;5078;42.544;22.966;2023-08-20T04:10:00;94069.50;;;18.51;100.00
10079;BME280;5078;42.544;22.966;2023-08-20T04:12:27;94073.44;;;18.73;100.00
10079;BME280;5078;42.544;22.966;2023-08-20T04:14:54;94070.44;;;18.88;100.00
10079;BME280;5078;42.544;22.966;2023-08-20T04:17:20;94072.78;;;19.03;100.00
10079;BME280;5078;42.544;22.966;2023-08-20T04:19:47;94073.22;;;19.00;100.00
10079;BME280;5078;42.544;22.966;2023-08-20T04:22:15;94070.59;;;19.12;100.00
10079;BME280;5078;42.544;22.966;2023-08-20T04:24:42;94078.66;;;19.12;100.00
10079;BME280;5078;42.544;22.966;2023-08-20T04:27:08;94065.75;;;19.39;100.00
10079;BME280;5078;42.544;22.966;2023-08-20T04:29:35;94081.81;;;19.82;100.00
10079;BME280;5078;42.544;22.966;2023-08-20T04:32:02;94073.19;;;20.34;100.00
10079;BME280;5078;42.544;22.966;2023-08-20T04:34:28;94073.59;;;20.50;100.00
10079;BME280;5078;42.544;22.966;2023-08-20T04:36:55;94065.41;;;20.56;100.00
10079;BME280;5078;42.544;22.966;2023-08-20T04:39:23;94074.81;;;21.01;97.67
10079;BME280;5078;42.544;22.966;2023-08-20T04:41:50;94062.84;;;21.20;93.75
10079;BME280;5078;42.544;22.966;2023-08-20T04:44:16;94082.28;;;21.46;93.99
10079;BME280;5078;42.544;22.966;2023-08-20T04:46:43;94063.03;;;21.54;91.01
10079;BME280;5078;42.544;22.966;2023-08-20T04:49:10;94065.59;;;21.72;88.35
10079;BME280;5078;42.544;22.966;2023-08-20T04:51:36;94072.34;;;22.15;84.96
10079;BME280;5078;42.544;22.966;2023-08-20T04:54:03;94064.88;;;22.51;80.98
10079;BME280;5078;42.544;22.966;2023-08-20T04:56:32;94065.47;;;22.87;80.14
10079;BME280;5078;42.544;22.966;2023-08-20T04:58:58;94072.75;;;23.03;77.72
10079;BME280;5078;42.544;22.966;2023-08-20T05:01:25;94065.97;;;22.84;80.73
10079;BME280;5078;42.544;22.966;2023-08-20T05:03:52;94071.28;;;22.79;79.40
10079;BME280;5078;42.544;22.966;2023-08-20T05:06:18;94069.47;;;22.68;78.05
10079;BME280;5078;42.544;22.966;2023-08-20T05:08:45;94071.88;;;22.98;76.06
10079;BME280;5078;42.544;22.966;2023-08-20T05:11:12;94062.84;;;23.09;74.91
10079;BME280;5078;42.544;22.966;2023-08-20T05:13:40;94065.19;;;23.22;73.61
10079;BME280;5078;42.544;22.966;2023-08-20T05:16:06;94073.06;;;22.56;78.00
10079;BME280;5078;42.544;22.966;2023-08-20T05:18:33;94070.28;;;22.85;79.47
10079;BME280;5078;42.544;22.966;2023-08-20T05:21:00;94068.66;;;23.18;74.60
10079;BME280;5078;42.544;22.966;2023-08-20T05:23:26;94071.75;;;22.93;76.14
10079;BME280;5078;42.544;22.966;2023-08-20T05:25:53;94076.50;;;22.86;77.84
10079;BME280;5078;42.544;22.966;2023-08-20T05:28:20;94077.16;;;23.27;75.64
10079;BME280;5078;42.544;22.966;2023-08-20T05:30:54;94073.53;;;23.60;72.75
10079;BME280;5078;42.544;22.966;2023-08-20T05:33:21;94078.53;;;23.90;72.86
10079;BME280;5078;42.544;22.966;2023-08-20T05:35:48;94078.81;;;24.43;67.83
10079;BME280;5078;42.544;22.966;2023-08-20T05:38:15;94072.19;;;24.28;68.76
10079;BME280;5078;42.544;22.966;2023-08-20T05:40:41;94077.84;;;24.49;67.37
10079;BME280;5078;42.544;22.966;2023-08-20T05:43:08;94076.69;;;24.45;68.46
10079;BME280;5078;42.544;22.966;2023-08-20T05:45:35;94069.66;;;24.76;63.18
10079;BME280;5078;42.544;22.966;2023-08-20T05:48:04;94080.47;;;24.44;64.92
10079;BME280;5078;42.544;22.966;2023-08-20T05:50:31;94077.06;;;24.53;63.87
10079;BME280;5078;42.544;22.966;2023-08-20T05:52:57;94070.03;;;23.59;70.78
10079;BME280;5078;42.544;22.966;2023-08-20T05:55:24;94083.16;;;23.89;69.25
10079;BME280;5078;42.544;22.966;2023-08-20T05:57:51;94074.94;;;23.62;72.12
10079;BME280;5078;42.544;22.966;2023-08-20T06:00:17;94067.31;;;23.59;72.21
10079;BME280;5078;42.544;22.966;2023-08-20T06:02:44;94073.31;;;23.61;72.29
10079;BME280;5078;42.544;22.966;2023-08-20T06:05:12;94064.72;;;23.47;72.75
10079;BME280;5078;42.544;22.966;2023-08-20T06:07:39;94076.53;;;23.80;70.97
10079;BME280;5078;42.544;22.966;2023-08-20T06:10:07;94068.19;;;23.65;73.24
10079;BME280;5078;42.544;22.966;2023-08-20T06:12:34;94080.56;;;24.49;67.86
10079;BME280;5078;42.544;22.966;2023-08-20T06:15:01;94075.47;;;24.30;66.55
10079;BME280;5078;42.544;22.966;2023-08-20T06:17:27;94077.56;;;25.57;61.23
10079;BME280;5078;42.544;22.966;2023-08-20T06:19:54;94076.50;;;26.27;56.64
10079;BME280;5078;42.544;22.966;2023-08-20T06:22:22;94073.47;;;26.08;56.39
10079;BME280;5078;42.544;22.966;2023-08-20T06:24:49;94072.16;;;26.31;56.79
10079;BME280;5078;42.544;22.966;2023-08-20T06:27:15;94072.22;;;27.38;53.00
10079;BME280;5078;42.544;22.966;2023-08-20T06:29:42;94064.03;;;27.53;51.18
10079;BME280;5078;42.544;22.966;2023-08-20T06:32:09;94063.97;;;27.79;51.69
10079;BME280;5078;42.544;22.966;2023-08-20T06:34:35;94063.41;;;28.42;48.67
10079;BME280;5078;42.544;22.966;2023-08-20T06:37:02;94062.78;;;28.55;48.51
10079;BME280;5078;42.544;22.966;2023-08-20T06:39:31;94061.22;;;28.49;48.60
10079;BME280;5078;42.544;22.966;2023-08-20T06:41:57;94061.41;;;28.13;49.69
10079;BME280;5078;42.544;22.966;2023-08-20T06:44:24;94068.97;;;29.11;47.63
10079;BME280;5078;42.544;22.966;2023-08-20T06:46:51;94068.56;;;29.52;46.04
10079;BME280;5078;42.544;22.966;2023-08-20T06:49:17;94059.13;;;29.39;45.58
10079;BME280;5078;42.544;22.966;2023-08-20T06:51:44;94062.03;;;29.23;45.46
10079;BME280;5078;42.544;22.966;2023-08-20T06:54:11;94068.53;;;28.93;45.51
10079;BME280;5078;42.544;22.966;2023-08-20T06:56:39;94069.63;;;29.56;45.08
10079;BME280;5078;42.544;22.966;2023-08-20T06:59:05;94065.78;;;29.57;43.34
10079;BME280;5078;42.544;22.966;2023-08-20T07:01:32;94064.06;;;29.08;43.66
10079;BME280;5078;42.544;22.966;2023-08-20T07:03:59;94060.28;;;29.33;44.64
10079;BME280;5078;42.544;22.966;2023-08-20T07:06:26;94064.50;;;30.21;43.47
10079;BME280;5078;42.544;22.966;2023-08-20T07:08:53;94069.81;;;30.93;42.04
10079;BME280;5078;42.544;22.966;2023-08-20T07:11:19;94059.31;;;30.44;42.30
10079;BME280;5078;42.544;22.966;2023-08-20T07:13:47;94066.44;;;30.78;41.93
10079;BME280;5078;42.544;22.966;2023-08-20T07:16:14;94054.38;;;31.16;40.89
10079;BME280;5078;42.544;22.966;2023-08-20T07:18:41;94062.03;;;30.82;39.92
10079;BME280;5078;42.544;22.966;2023-08-20T07:21:07;94065.50;;;30.68;39.73
10079;BME280;5078;42.544;22.966;2023-08-20T07:23:34;94060.59;;;30.27;41.79
10079;BME280;5078;42.544;22.966;2023-08-20T07:26:04;94066.00;;;30.33;40.24
10079;BME280;5078;42.544;22.966;2023-08-20T07:28:31;94060.34;;;31.51;39.60
10079;BME280;5078;42.544;22.966;2023-08-20T07:31:13;94068.34;;;31.94;38.65
10079;BME280;5078;42.544;22.966;2023-08-20T07:33:40;94062.41;;;31.87;38.13
10079;BME280;5078;42.544;22.966;2023-08-20T07:36:07;94061.97;;;31.52;39.36
10079;BME280;5078;42.544;22.966;2023-08-20T07:38:33;94067.09;;;31.73;39.26
10079;BME280;5078;42.544;22.966;2023-08-20T07:40:59;94066.63;;;32.99;36.13
10079;BME280;5078;42.544;22.966;2023-08-20T07:43:26;94064.03;;;32.80;35.35
10079;BME280;5078;42.544;22.966;2023-08-20T07:45:53;94070.47;;;31.04;38.70
10079;BME280;5078;42.544;22.966;2023-08-20T07:48:21;94070.25;;;32.35;35.97
10079;BME280;5078;42.544;22.966;2023-08-20T07:50:47;94060.16;;;31.48;38.30
10079;BME280;5078;42.544;22.966;2023-08-20T07:53:14;94067.78;;;31.51;37.57
10079;BME280;5078;42.544;22.966;2023-08-20T07:55:41;94075.13;;;31.04;37.92
10079;BME280;5078;42.544;22.966;2023-08-20T07:58:08;94069.84;;;31.07;38.10
10079;BME280;5078;42.544;22.966;2023-08-20T08:00:34;94077.63;;;30.62;38.56
10079;BME280;5078;42.544;22.966;2023-08-20T08:03:01;94072.03;;;30.53;39.56
10079;BME280;5078;42.544;22.966;2023-08-20T08:05:29;94064.69;;;30.30;39.36
10079;BME280;5078;42.544;22.966;2023-08-20T08:07:56;94074.06;;;30.43;38.60
10079;BME280;5078;42.544;22.966;2023-08-20T08:10:22;94072.41;;;30.66;39.13
10079;BME280;5078;42.544;22.966;2023-08-20T08:12:49;94064.34;;;30.93;37.85
10079;BME280;5078;42.544;22.966;2023-08-20T08:15:16;94064.41;;;30.31;39.54
10079;BME280;5078;42.544;22.966;2023-08-20T08:17:43;94064.03;;;30.57;37.81
10079;BME280;5078;42.544;22.966;2023-08-20T08:20:10;94064.34;;;31.26;37.56
10079;BME280;5078;42.544;22.966;2023-08-20T08:22:39;94062.22;;;31.37;37.78
10079;BME280;5078;42.544;22.966;2023-08-20T08:25:05;94047.91;;;32.28;36.28
10079;BME280;5078;42.544;22.966;2023-08-20T08:27:32;94053.19;;;32.11;35.73
10079;BME280;5078;42.544;22.966;2023-08-20T08:29:59;94070.47;;;31.97;35.47
10079;BME280;5078;42.544;22.966;2023-08-20T08:32:25;94056.94;;;31.27;35.82
10079;BME280;5078;42.544;22.966;2023-08-20T08:34:52;94059.03;;;30.83;36.16
10079;BME280;5078;42.544;22.966;2023-08-20T08:37:19;94060.09;;;30.01;37.53
10079;BME280;5078;42.544;22.966;2023-08-20T08:39:47;94067.91;;;29.89;36.73
10079;BME280;5078;42.544;22.966;2023-08-20T08:42:14;94054.91;;;29.81;36.26
10079;BME280;5078;42.544;22.966;2023-08-20T08:44:41;94065.09;;;29.46;36.73
10079;BME280;5078;42.544;22.966;2023-08-20T08:47:08;94059.25;;;29.82;36.44
10079;BME280;5078;42.544;22.966;2023-08-20T08:49:35;94053.84;;;30.01;36.15
10079;BME280;5078;42.544;22.966;2023-08-20T08:52:03;94059.69;;;30.56;36.43
10079;BME280;5078;42.544;22.966;2023-08-20T08:54:30;94060.25;;;30.10;36.23
10079;BME280;5078;42.544;22.966;2023-08-20T08:56:59;94062.25;;;29.80;35.52
10079;BME280;5078;42.544;22.966;2023-08-20T08:59:26;94060.53;;;29.02;36.11
10079;BME280;5078;42.544;22.966;2023-08-20T09:01:54;94060.09;;;29.53;35.57
10079;BME280;5078;42.544;22.966;2023-08-20T09:04:22;94056.84;;;29.75;34.47
10079;BME280;5078;42.544;22.966;2023-08-20T09:06:50;94058.28;;;30.16;35.38
10079;BME280;5078;42.544;22.966;2023-08-20T09:09:17;94064.66;;;29.58;35.61
10079;BME280;5078;42.544;22.966;2023-08-20T09:11:44;94057.38;;;30.25;35.41
10079;BME280;5078;42.544;22.966;2023-08-20T09:14:22;94038.81;;;29.98;34.32
10079;BME280;5078;42.544;22.966;2023-08-20T09:16:54;94044.97;;;30.09;34.63
10079;BME280;5078;42.544;22.966;2023-08-20T09:19:21;94055.06;;;30.33;34.68
10079;BME280;5078;42.544;22.966;2023-08-20T09:21:48;94057.66;;;30.00;35.34
10079;BME280;5078;42.544;22.966;2023-08-20T09:24:14;94054.53;;;29.87;35.38
10079;BME280;5078;42.544;22.966;2023-08-20T09:26:45;94063.91;;;29.81;34.26
10079;BME280;5078;42.544;22.966;2023-08-20T09:29:11;94059.31;;;30.01;33.95
10079;BME280;5078;42.544;22.966;2023-08-20T09:31:39;94051.50;;;29.89;34.54
10079;BME280;5078;42.544;22.966;2023-08-20T09:34:12;94056.84;;;30.42;34.69
10079;BME280;5078;42.544;22.966;2023-08-20T09:36:39;94048.78;;;30.32;34.51
10079;BME280;5078;42.544;22.966;2023-08-20T09:39:05;94060.50;;;30.14;33.64
10079;BME280;5078;42.544;22.966;2023-08-20T09:41:33;94056.81;;;30.23;32.94
10079;BME280;5078;42.544;22.966;2023-08-20T09:44:04;94054.91;;;30.24;32.38
10079;BME280;5078;42.544;22.966;2023-08-20T09:46:33;94055.44;;;30.02;33.02
10079;BME280;5078;42.544;22.966;2023-08-20T09:49:02;94052.00;;;30.15;32.71
10079;BME280;5078;42.544;22.966;2023-08-20T09:51:33;94060.19;;;29.96;33.16
10079;BME280;5078;42.544;22.966;2023-08-20T09:54:06;94040.66;;;30.46;33.44
10079;BME280;5078;42.544;22.966;2023-08-20T09:56:38;94052.72;;;30.45;33.85
10079;BME280;5078;42.544;22.966;2023-08-20T09:59:06;94044.72;;;30.86;33.89
10079;BME280;5078;42.544;22.966;2023-08-20T10:01:33;94054.13;;;30.42;34.06
10079;BME280;5078;42.544;22.966;2023-08-20T10:04:02;94052.34;;;30.51;33.62
10079;BME280;5078;42.544;22.966;2023-08-20T10:06:30;94055.75;;;30.43;32.92
10079;BME280;5078;42.544;22.966;2023-08-20T10:08:59;94053.75;;;30.68;34.16
10079;BME280;5078;42.544;22.966;2023-08-20T10:11:26;94043.84;;;31.37;32.75
10079;BME280;5078;42.544;22.966;2023-08-20T10:13:53;94046.56;;;31.24;31.95
10079;BME280;5078;42.544;22.966;2023-08-20T10:16:21;94050.53;;;30.80;32.24
10079;BME280;5078;42.544;22.966;2023-08-20T10:18:49;94065.31;;;30.46;32.54
10079;BME280;5078;42.544;22.966;2023-08-20T10:21:17;94051.31;;;30.47;32.53
10079;BME280;5078;42.544;22.966;2023-08-20T10:23:48;94050.34;;;30.76;32.29
10079;BME280;5078;42.544;22.966;2023-08-20T10:26:15;94055.00;;;30.57;32.86
10079;BME280;5078;42.544;22.966;2023-08-20T10:28:42;94050.50;;;30.47;32.54
10079;BME280;5078;42.544;22.966;2023-08-20T10:31:09;94050.09;;;30.72;33.56
10079;BME280;5078;42.544;22.966;2023-08-20T10:33:38;94053.66;;;31.11;33.24
10079;BME280;5078;42.544;22.966;2023-08-20T10:36:10;94036.31;;;31.48;32.80
10079;BME280;5078;42.544;22.966;2023-08-20T10:38:38;94043.75;;;32.03;32.29
10079;BME280;5078;42.544;22.966;2023-08-20T10:41:08;94037.50;;;32.25;32.22
10079;BME280;5078;42.544;22.966;2023-08-20T10:43:37;94037.72;;;32.29;31.16
10079;BME280;5078;42.544;22.966;2023-08-20T10:46:08;94040.34;;;32.48;31.77
10079;BME280;5078;42.544;22.966;2023-08-20T10:48:40;94039.56;;;31.78;31.54
10079;BME280;5078;42.544;22.966;2023-08-20T10:51:09;94041.38;;;31.69;31.52
10079;BME280;5078;42.544;22.966;2023-08-20T10:53:38;94040.31;;;31.37;31.87
10079;BME280;5078;42.544;22.966;2023-08-20T10:56:13;94034.28;;;31.54;32.28
10079;BME280;5078;42.544;22.966;2023-08-20T10:58:44;94038.75;;;31.64;32.15
10079;BME280;5078;42.544;22.966;2023-08-20T11:01:17;94038.31;;;31.43;30.98
10079;BME280;5078;42.544;22.966;2023-08-20T11:03:46;94031.16;;;31.28;31.64
10079;BME280;5078;42.544;22.966;2023-08-20T11:06:14;94027.88;;;31.12;32.20
10079;BME280;5078;42.544;22.966;2023-08-20T11:08:42;94025.69;;;30.76;32.80
10079;BME280;5078;42.544;22.966;2023-08-20T11:11:09;94034.13;;;30.80;32.13
10079;BME280;5078;42.544;22.966;2023-08-20T11:13:36;94025.69;;;30.76;32.50
10079;BME280;5078;42.544;22.966;2023-08-20T11:16:04;94016.25;;;30.68;31.50
10079;BME280;5078;42.544;22.966;2023-08-20T11:18:33;94015.88;;;30.56;32.14
10079;BME280;5078;42.544;22.966;2023-08-20T11:21:00;94026.31;;;30.73;32.55
10079;BME280;5078;42.544;22.966;2023-08-20T11:23:27;94022.38;;;30.98;32.17
10079;BME280;5078;42.544;22.966;2023-08-20T11:25:56;94020.16;;;30.62;32.35
10079;BME280;5078;42.544;22.966;2023-08-20T11:28:25;94022.84;;;30.29;32.22
10079;BME280;5078;42.544;22.966;2023-08-20T11:30:52;94017.72;;;30.42;32.00
10079;BME280;5078;42.544;22.966;2023-08-20T11:33:19;94022.03;;;30.29;31.94
10079;BME280;5078;42.544;22.966;2023-08-20T11:35:46;94014.31;;;30.50;32.04
10079;BME280;5078;42.544;22.966;2023-08-20T11:38:13;94018.22;;;30.82;31.95
10079;BME280;5078;42.544;22.966;2023-08-20T11:40:40;94015.44;;;31.33;31.83
10079;BME280;5078;42.544;22.966;2023-08-20T11:43:09;94018.22;;;30.82;31.95
10079;BME280;5078;42.544;22.966;2023-08-20T11:45:44;94009.28;;;30.76;31.53
10079;BME280;5078;42.544;22.966;2023-08-20T11:48:11;94005.59;;;30.86;31.77
10079;BME280;5078;42.544;22.966;2023-08-20T11:50:38;93998.00;;;30.97;31.69
10079;BME280;5078;42.544;22.966;2023-08-20T11:53:06;93992.84;;;30.76;31.87
10079;BME280;5078;42.544;22.966;2023-08-20T11:55:33;93997.66;;;30.84;31.61
10079;BME280;5078;42.544;22.966;2023-08-20T11:58:00;94001.78;;;31.14;32.00
10079;BME280;5078;42.544;22.966;2023-08-20T12:00:30;94000.56;;;31.07;31.40
10079;BME280;5078;42.544;22.966;2023-08-20T12:02:57;94003.06;;;30.70;31.97
10079;BME280;5078;42.544;22.966;2023-08-20T12:05:26;93996.56;;;30.85;32.31
10079;BME280;5078;42.544;22.966;2023-08-20T12:07:57;93998.69;;;31.21;31.86
10079;BME280;5078;42.544;22.966;2023-08-20T12:10:25;93994.91;;;31.17;31.88
10079;BME280;5078;42.544;22.966;2023-08-20T12:12:52;93990.84;;;31.14;31.28
10079;BME280;5078;42.544;22.966;2023-08-20T12:15:20;93990.66;;;31.11;32.25
10079;BME280;5078;42.544;22.966;2023-08-20T12:17:59;93991.34;;;31.16;30.94
10079;BME280;5078;42.544;22.966;2023-08-20T12:20:29;93988.97;;;30.96;31.60
10079;BME280;5078;42.544;22.966;2023-08-20T12:22:58;93992.72;;;30.86;31.72
10079;BME280;5078;42.544;22.966;2023-08-20T12:25:25;93986.94;;;30.88;31.66
10079;BME280;5078;42.544;22.966;2023-08-20T12:27:52;93979.63;;;30.64;32.00
10079;BME280;5078;42.544;22.966;2023-08-20T12:30:21;93979.97;;;30.77;32.54
10079;BME280;5078;42.544;22.966;2023-08-20T12:32:48;93967.69;;;31.07;31.79
10079;BME280;5078;42.544;22.966;2023-08-20T12:35:16;93971.56;;;31.06;31.40
10079;BME280;5078;42.544;22.966;2023-08-20T12:37:43;93972.13;;;31.35;31.49
10079;BME280;5078;42.544;22.966;2023-08-20T12:40:11;93971.53;;;31.38;30.88
10079;BME280;5078;42.544;22.966;2023-08-20T12:42:38;93974.03;;;31.21;31.53
10079;BME280;5078;42.544;22.966;2023-08-20T12:45:06;93969.72;;;31.48;30.96
10079;BME280;5078;42.544;22.966;2023-08-20T12:47:33;93977.56;;;31.22;31.85
10079;BME280;5078;42.544;22.966;2023-08-20T12:49:59;93978.88;;;31.24;31.86
10079;BME280;5078;42.544;22.966;2023-08-20T12:52:28;93964.00;;;31.44;32.14
10079;BME280;5078;42.544;22.966;2023-08-20T12:54:54;93971.94;;;31.59;32.29
10079;BME280;5078;42.544;22.966;2023-08-20T12:57:21;93969.09;;;31.65;32.01
10079;BME280;5078;42.544;22.966;2023-08-20T12:59:48;93971.53;;;31.66;31.62
10079;BME280;5078;42.544;22.966;2023-08-20T13:02:14;93976.75;;;31.35;32.42
10079;BME280;5078;42.544;22.966;2023-08-20T13:04:41;93965.41;;;31.28;32.25